createdAt,value
2023-09-22T00:00:49.000Z,0
2023-09-22T00:02:20.000Z,0
2023-09-22T00:03:50.000Z,0
2023-09-22T00:05:21.000Z,0
2023-09-22T00:06:51.000Z,0
2023-09-22T00:08:22.000Z,0
2023-09-22T00:09:39.000Z,0
2023-09-22T00:10:56.000Z,0
2023-09-22T00:12:26.000Z,0
2023-09-22T00:13:57.000Z,0
2023-09-22T00:15:27.000Z,0
2023-09-22T00:16:58.000Z,0
2023-09-22T00:18:28.000Z,0
2023-09-22T00:19:59.000Z,0
2023-09-22T00:21:29.000Z,0
2023-09-22T00:23:00.000Z,0
2023-09-22T00:24:30.000Z,0
2023-09-22T00:25:47.000Z,0
2023-09-22T00:27:04.000Z,0
2023-09-22T00:28:35.000Z,0
2023-09-22T00:30:05.000Z,0
2023-09-22T00:31:36.000Z,0
2023-09-22T00:33:06.000Z,0
2023-09-22T00:34:37.000Z,0
2023-09-22T00:36:07.000Z,0
2023-09-22T00:37:38.000Z,0
2023-09-22T00:39:08.000Z,0
2023-09-22T00:40:39.000Z,0
2023-09-22T00:41:56.000Z,0
2023-09-22T00:43:13.000Z,0
2023-09-22T00:44:43.000Z,0
2023-09-22T00:46:14.000Z,0
2023-09-22T00:47:44.000Z,0
2023-09-22T00:49:15.000Z,0
2023-09-22T00:50:45.000Z,0
2023-09-22T00:52:16.000Z,0
2023-09-22T00:53:46.000Z,0
2023-09-22T00:55:17.000Z,0
2023-09-22T00:56:47.000Z,0
2023-09-22T00:58:05.053Z,0
2023-09-22T00:59:21.000Z,0
2023-09-22T01:00:52.000Z,0
2023-09-22T01:02:22.000Z,0
2023-09-22T01:03:53.000Z,0
2023-09-22T01:05:23.000Z,0
2023-09-22T01:06:54.000Z,0
2023-09-22T01:08:24.000Z,0
2023-09-22T01:09:55.000Z,0
2023-09-22T01:11:25.000Z,0
2023-09-22T01:12:56.000Z,0
2023-09-22T01:14:12.000Z,0
2023-09-22T01:15:29.000Z,0
2023-09-22T01:17:00.000Z,0
2023-09-22T01:18:30.000Z,0
2023-09-22T01:23:02.000Z,0
2023-09-22T01:24:32.000Z,0
2023-09-22T01:26:03.000Z,0
2023-09-22T01:27:34.000Z,0
2023-09-22T01:29:04.000Z,0
2023-09-22T01:30:21.000Z,0
2023-09-22T01:31:38.000Z,0
2023-09-22T01:33:08.000Z,0
2023-09-22T01:34:39.000Z,0
2023-09-22T01:37:40.000Z,0
2023-09-22T01:42:12.000Z,0
2023-09-22T01:43:42.000Z,0
2023-09-22T01:45:13.000Z,0
2023-09-22T01:46:30.000Z,0
2023-09-22T01:47:46.000Z,0
2023-09-22T01:49:17.000Z,0
2023-09-22T01:50:47.000Z,0
2023-09-22T01:52:18.000Z,0
2023-09-22T01:53:48.000Z,0
2023-09-22T01:55:19.000Z,0
2023-09-22T01:56:49.000Z,0
2023-09-22T01:59:50.000Z,0
2023-09-22T02:01:21.000Z,0
2023-09-22T02:02:37.000Z,0
2023-09-22T02:03:54.000Z,0
2023-09-22T02:05:25.000Z,0
2023-09-22T02:06:55.000Z,0
2023-09-22T02:08:26.000Z,0
2023-09-22T02:09:56.000Z,0
2023-09-22T02:11:27.000Z,0
2023-09-22T02:12:57.000Z,0
2023-09-22T02:14:28.000Z,0
2023-09-22T02:15:58.000Z,0
2023-09-22T02:17:29.000Z,0
2023-09-22T02:18:46.000Z,0
2023-09-22T02:20:02.000Z,0
2023-09-22T02:21:33.000Z,0
2023-09-22T02:23:03.000Z,0
2023-09-22T02:24:34.000Z,0
2023-09-22T02:26:04.000Z,0
2023-09-22T02:29:05.000Z,0
2023-09-22T02:30:36.000Z,0
2023-09-22T02:32:06.000Z,0
2023-09-22T02:33:37.000Z,0
2023-09-22T02:34:54.000Z,0
2023-09-22T02:36:11.000Z,0
2023-09-22T02:37:41.000Z,0
2023-09-22T02:39:12.000Z,0
2023-09-22T02:40:42.000Z,0
2023-09-22T02:42:13.000Z,0
2023-09-22T02:43:43.000Z,0
2023-09-22T02:45:14.000Z,0
2023-09-22T02:46:44.000Z,0
2023-09-22T02:48:15.000Z,0
2023-09-22T02:49:45.000Z,0
2023-09-22T02:51:02.000Z,0
2023-09-22T02:52:19.000Z,0
2023-09-22T02:53:50.000Z,0
2023-09-22T02:55:20.000Z,0
2023-09-22T02:56:51.000Z,0
2023-09-22T02:58:21.000Z,0
2023-09-22T02:59:52.000Z,0
2023-09-22T03:01:22.000Z,0
2023-09-22T03:02:53.000Z,0
2023-09-22T03:04:23.000Z,0
2023-09-22T03:05:54.000Z,0
2023-09-22T03:07:11.000Z,0
2023-09-22T03:08:28.000Z,0
2023-09-22T03:09:58.000Z,0
2023-09-22T03:11:29.000Z,0
2023-09-22T03:12:59.000Z,0
2023-09-22T03:14:30.000Z,0
2023-09-22T03:16:00.000Z,0
2023-09-22T03:17:31.000Z,0
2023-09-22T03:20:32.000Z,0
2023-09-22T03:22:03.000Z,0
2023-09-22T03:23:20.000Z,0
2023-09-22T03:24:36.000Z,0
2023-09-22T03:26:07.000Z,0
2023-09-22T03:27:38.000Z,0
2023-09-22T03:29:08.000Z,0
2023-09-22T03:30:39.000Z,0
2023-09-22T03:32:17.000Z,0
2023-09-22T03:33:48.000Z,0
2023-09-22T03:35:18.000Z,0
2023-09-22T03:36:49.000Z,0
2023-09-22T03:38:19.000Z,0
2023-09-22T03:39:36.000Z,0
2023-09-22T03:40:53.000Z,0
2023-09-22T03:42:24.000Z,0
2023-09-22T03:43:54.000Z,0
2023-09-22T03:45:25.000Z,0
2023-09-22T03:46:55.000Z,0
2023-09-22T03:48:26.000Z,0
2023-09-22T03:49:56.000Z,0
2023-09-22T03:51:27.000Z,0
2023-09-22T03:52:57.000Z,0
2023-09-22T03:55:45.000Z,0
2023-09-22T03:57:02.000Z,0
2023-09-22T03:58:32.000Z,0
2023-09-22T04:01:33.000Z,0
2023-09-22T04:03:04.000Z,0
2023-09-22T04:04:34.000Z,0
2023-09-22T04:06:05.000Z,0
2023-09-22T04:07:35.000Z,0
2023-09-22T04:09:06.000Z,0
2023-09-22T04:10:36.000Z,0
2023-09-22T04:11:53.000Z,0
2023-09-22T04:13:10.000Z,0
2023-09-22T04:14:41.000Z,0
2023-09-22T04:16:11.000Z,0
2023-09-22T04:17:42.000Z,0
2023-09-22T04:19:12.000Z,0
2023-09-22T04:20:43.000Z,0
2023-09-22T04:22:13.000Z,0
2023-09-22T04:23:44.000Z,0
2023-09-22T04:25:14.000Z,0
2023-09-22T04:26:45.000Z,0
2023-09-22T04:28:02.000Z,0
2023-09-22T04:29:19.000Z,0
2023-09-22T04:30:49.000Z,0
2023-09-22T04:32:20.000Z,0
2023-09-22T04:33:50.000Z,0
2023-09-22T04:35:21.000Z,0
2023-09-22T04:36:51.000Z,0
2023-09-22T04:39:52.000Z,0
2023-09-22T04:41:23.000Z,0
2023-09-22T04:42:53.000Z,0
2023-09-22T04:44:10.000Z,0
2023-09-22T04:45:27.000Z,0
2023-09-22T04:46:58.000Z,0
2023-09-22T04:48:28.000Z,0
2023-09-22T04:49:59.000Z,0
2023-09-22T04:51:29.000Z,0
2023-09-22T04:54:30.000Z,0
2023-09-22T04:56:01.000Z,4
2023-09-22T04:57:32.000Z,4
2023-09-22T04:59:02.000Z,8
2023-09-22T05:00:19.000Z,8
2023-09-22T05:01:36.000Z,12
2023-09-22T05:03:06.000Z,8
2023-09-22T05:04:37.000Z,12
2023-09-22T05:06:08.000Z,16
2023-09-22T05:07:38.000Z,20
2023-09-22T05:09:09.000Z,24
2023-09-22T05:10:39.000Z,28
2023-09-22T05:12:10.000Z,32
2023-09-22T05:13:40.000Z,36
2023-09-22T05:15:11.000Z,44
2023-09-22T05:16:28.000Z,52
2023-09-22T05:17:45.000Z,56
2023-09-22T05:19:15.000Z,64
2023-09-22T05:20:46.000Z,76
2023-09-22T05:22:16.000Z,88
2023-09-22T05:23:47.000Z,108
2023-09-22T05:25:17.000Z,128
2023-09-22T05:26:48.000Z,132
2023-09-22T05:28:18.000Z,140
2023-09-22T05:29:49.000Z,148
2023-09-22T05:31:19.000Z,156
2023-09-22T05:32:36.000Z,172
2023-09-22T05:33:53.000Z,184
2023-09-22T05:35:24.000Z,188
2023-09-22T05:36:54.000Z,188
2023-09-22T05:38:25.000Z,196
2023-09-22T05:39:55.000Z,208
2023-09-22T05:42:56.000Z,232
2023-09-22T05:44:27.000Z,248
2023-09-22T05:45:57.000Z,276
2023-09-22T05:47:28.000Z,284
2023-09-22T05:48:45.000Z,284
2023-09-22T05:50:01.000Z,288
2023-09-22T05:51:32.000Z,308
2023-09-22T05:53:02.000Z,336
2023-09-22T05:54:33.000Z,364
2023-09-22T05:56:03.000Z,376
2023-09-22T05:57:34.000Z,384
2023-09-22T06:00:35.000Z,388
2023-09-22T06:02:05.000Z,368
2023-09-22T06:03:36.000Z,300
2023-09-22T06:04:53.000Z,268
2023-09-22T06:06:10.000Z,324
2023-09-22T06:07:40.000Z,396
2023-09-22T06:09:11.000Z,444
2023-09-22T06:10:41.000Z,460
2023-09-22T06:12:12.000Z,444
2023-09-22T06:13:42.000Z,472
2023-09-22T06:15:13.000Z,572
2023-09-22T06:16:43.000Z,540
2023-09-22T06:18:14.000Z,600
2023-09-22T06:19:44.000Z,600
2023-09-22T06:21:01.000Z,552
2023-09-22T06:22:18.000Z,556
2023-09-22T06:23:49.000Z,596
2023-09-22T06:25:19.000Z,740
2023-09-22T06:26:50.000Z,736
2023-09-22T06:28:20.000Z,796
2023-09-22T06:29:51.000Z,756
2023-09-22T06:31:21.000Z,708
2023-09-22T06:32:52.000Z,796
2023-09-22T06:34:22.000Z,976
2023-09-22T06:37:10.000Z,1008
2023-09-22T06:38:27.000Z,1000
2023-09-22T06:39:57.000Z,1004
2023-09-22T06:41:28.000Z,1056
2023-09-22T06:42:58.000Z,1308
2023-09-22T06:44:29.000Z,1604
2023-09-22T06:45:59.000Z,1576
2023-09-22T06:47:30.000Z,1320
2023-09-22T06:49:00.000Z,1172
2023-09-22T06:50:31.000Z,1644
2023-09-22T06:52:01.000Z,1776
2023-09-22T06:53:18.000Z,1740
2023-09-22T06:54:35.000Z,2052
2023-09-22T06:56:06.000Z,1888
2023-09-22T06:57:36.000Z,1648
2023-09-22T06:59:07.000Z,1492
2023-09-22T07:00:37.000Z,1324
2023-09-22T07:02:08.000Z,1092
2023-09-22T07:05:09.000Z,1320
2023-09-22T07:06:39.000Z,1452
2023-09-22T07:08:10.000Z,1592
2023-09-22T07:09:27.000Z,1780
2023-09-22T07:10:44.000Z,1824
2023-09-22T07:12:14.000Z,1816
2023-09-22T07:13:45.000Z,1684
2023-09-22T07:15:15.000Z,1736
2023-09-22T07:16:46.000Z,1736
2023-09-22T07:18:16.000Z,1720
2023-09-22T07:19:47.000Z,1796
2023-09-22T07:21:18.000Z,2000
2023-09-22T07:22:48.000Z,2052
2023-09-22T07:24:19.000Z,2064
2023-09-22T07:25:35.000Z,2088
2023-09-22T07:26:53.207Z,2048
2023-09-22T07:28:23.000Z,2048
2023-09-22T07:29:53.000Z,2080
2023-09-22T07:31:24.000Z,2132
2023-09-22T07:34:25.000Z,2252
2023-09-22T07:35:56.000Z,2316
2023-09-22T07:37:26.000Z,2356
2023-09-22T07:40:27.000Z,2464
2023-09-22T07:41:44.000Z,2588
2023-09-22T07:43:01.000Z,2588
2023-09-22T07:44:31.000Z,2868
2023-09-22T07:46:02.000Z,3280
2023-09-22T07:49:03.000Z,3372
2023-09-22T07:50:33.000Z,3224
2023-09-22T07:53:34.000Z,3136
2023-09-22T07:55:05.000Z,3300
2023-09-22T07:57:52.000Z,3608
2023-09-22T07:59:09.000Z,3636
2023-09-22T08:00:40.000Z,3912
2023-09-22T08:02:10.000Z,4376
2023-09-22T08:03:41.000Z,4292
2023-09-22T08:05:11.000Z,4276
2023-09-22T08:06:42.000Z,5012
2023-09-22T08:08:12.000Z,7816
2023-09-22T08:09:43.000Z,5360
2023-09-22T08:12:44.000Z,4912
2023-09-22T08:14:01.000Z,6360
2023-09-22T08:15:18.000Z,9484
2023-09-22T08:16:48.000Z,23712
2023-09-22T08:18:19.000Z,5300
2023-09-22T08:19:49.000Z,5492
2023-09-22T08:21:20.000Z,8520
2023-09-22T08:22:50.000Z,14376
2023-09-22T08:24:21.000Z,23008
2023-09-22T08:27:30.000Z,8752
2023-09-22T08:29:00.000Z,10336
2023-09-22T08:30:17.000Z,9040
2023-09-22T08:33:05.000Z,8344
2023-09-22T08:34:35.000Z,8908
2023-09-22T08:37:36.000Z,8352
2023-09-22T08:39:07.000Z,8748
2023-09-22T08:40:37.000Z,20352
2023-09-22T08:42:08.000Z,17920
2023-09-22T08:45:09.000Z,24352
2023-09-22T08:46:39.000Z,7784
2023-09-22T08:47:56.000Z,13640
2023-09-22T08:49:13.000Z,11420
2023-09-22T08:50:44.000Z,5532
2023-09-22T08:52:14.000Z,7800
2023-09-22T08:53:45.000Z,4800
2023-09-22T08:56:46.000Z,6180
2023-09-22T08:59:47.000Z,5092
2023-09-22T09:01:17.000Z,4512
2023-09-22T09:05:22.000Z,4596
2023-09-22T09:08:23.000Z,20256
2023-09-22T09:11:24.000Z,5832
2023-09-22T09:12:54.000Z,10076
2023-09-22T09:14:25.000Z,22208
2023-09-22T09:15:55.000Z,7556
2023-09-22T09:17:26.000Z,10812
2023-09-22T09:18:56.000Z,13272
2023-09-22T09:20:13.000Z,1744
2023-09-22T09:21:30.000Z,4628
2023-09-22T09:26:02.000Z,36128
2023-09-22T09:29:03.000Z,8252
2023-09-22T09:30:33.000Z,27424
2023-09-22T09:32:04.000Z,4812
2023-09-22T09:33:34.000Z,3400
2023-09-22T09:35:05.000Z,3076
2023-09-22T09:36:22.000Z,5476
2023-09-22T09:37:39.000Z,2748
2023-09-22T09:39:09.000Z,5284
2023-09-22T09:40:40.000Z,2200
2023-09-22T09:42:10.000Z,3872
2023-09-22T09:43:41.000Z,4364
2023-09-22T09:45:11.000Z,3028
2023-09-22T09:46:42.000Z,2496
2023-09-22T09:48:12.000Z,1760
2023-09-22T09:49:43.000Z,1916
2023-09-22T09:51:13.000Z,3020
2023-09-22T09:52:30.000Z,2884
2023-09-22T09:53:47.000Z,3044
2023-09-22T09:55:17.000Z,4048
2023-09-22T09:56:48.000Z,2628
2023-09-22T09:58:18.000Z,1764
2023-09-22T09:59:49.000Z,1612
2023-09-22T10:01:19.000Z,1456
2023-09-22T10:02:50.000Z,3108
2023-09-22T10:04:20.000Z,65888
2023-09-22T10:05:51.000Z,47104
2023-09-22T10:07:21.000Z,62976
2023-09-22T10:08:38.000Z,7376
2023-09-22T10:11:26.000Z,3956
2023-09-22T10:12:56.000Z,3856
2023-09-22T10:14:27.000Z,4496
2023-09-22T10:15:57.000Z,4556
2023-09-22T10:17:28.000Z,10404
2023-09-22T10:18:58.000Z,12556
2023-09-22T10:20:29.000Z,12724
2023-09-22T10:21:59.000Z,5804
2023-09-22T10:23:30.000Z,3112
2023-09-22T10:24:47.000Z,5828
2023-09-22T10:26:04.000Z,5304
2023-09-22T10:27:34.000Z,4820
2023-09-22T10:29:05.000Z,15712
2023-09-22T10:30:35.000Z,4556
2023-09-22T10:32:06.000Z,3704
2023-09-22T10:33:36.000Z,2768
2023-09-22T10:35:07.000Z,2468
2023-09-22T10:36:37.000Z,3248
2023-09-22T10:38:08.000Z,3972
2023-09-22T10:40:55.000Z,5244
2023-09-22T10:42:12.000Z,5528
2023-09-22T10:43:43.000Z,4500
2023-09-22T10:45:13.000Z,3648
2023-09-22T10:46:44.000Z,2948
2023-09-22T10:48:14.000Z,2844
2023-09-22T10:49:45.000Z,2820
2023-09-22T10:51:15.000Z,2732
2023-09-22T10:54:16.000Z,2576
2023-09-22T10:57:04.000Z,1912
2023-09-22T10:58:21.000Z,1840
2023-09-22T10:59:51.000Z,2096
2023-09-22T11:01:22.000Z,2420
2023-09-22T11:02:52.000Z,2172
2023-09-22T11:04:23.000Z,2356
2023-09-22T11:05:53.000Z,2268
2023-09-22T11:08:54.000Z,1948
2023-09-22T11:10:25.000Z,1860
2023-09-22T11:11:55.000Z,2032
2023-09-22T11:13:12.000Z,2588
2023-09-22T11:14:29.000Z,2984
2023-09-22T11:16:00.000Z,3348
2023-09-22T11:17:30.000Z,3484
2023-09-22T11:20:31.000Z,3856
2023-09-22T11:22:02.000Z,3892
2023-09-22T11:23:32.000Z,3860
2023-09-22T11:26:33.000Z,3620
2023-09-22T11:28:04.000Z,3548
2023-09-22T11:29:20.000Z,3828
2023-09-22T11:30:37.000Z,3636
2023-09-22T11:32:08.000Z,3432
2023-09-22T11:33:38.000Z,2916
2023-09-22T11:35:09.000Z,2680
2023-09-22T11:36:39.000Z,2644
2023-09-22T11:38:10.000Z,2312
2023-09-22T11:39:40.000Z,2136
2023-09-22T11:41:11.000Z,1880
2023-09-22T11:42:41.000Z,1740
2023-09-22T11:44:12.000Z,1652
2023-09-22T11:46:46.000Z,1764
2023-09-22T11:48:16.000Z,1776
2023-09-22T11:49:47.000Z,2008
2023-09-22T11:52:48.000Z,1724
2023-09-22T11:54:18.000Z,1728
2023-09-22T11:55:49.000Z,2300
2023-09-22T11:57:20.000Z,3476
2023-09-22T11:58:50.000Z,6576
2023-09-22T12:00:21.000Z,3804
2023-09-22T12:02:54.000Z,3544
2023-09-22T12:04:25.000Z,2288
2023-09-22T12:05:55.000Z,2316
2023-09-22T12:07:26.000Z,2496
2023-09-22T12:08:57.000Z,2448
2023-09-22T12:10:27.000Z,2428
2023-09-22T12:11:58.000Z,2376
2023-09-22T12:13:28.000Z,3012
2023-09-22T12:16:29.000Z,3440
2023-09-22T12:17:46.000Z,3976
2023-09-22T12:20:33.000Z,3884
2023-09-22T12:22:04.000Z,3452
2023-09-22T12:23:34.000Z,3136
2023-09-22T12:25:05.000Z,3092
2023-09-22T12:26:35.000Z,3252
2023-09-22T12:29:36.000Z,3156
2023-09-22T12:32:37.000Z,3680
2023-09-22T12:33:54.000Z,5092
2023-09-22T12:35:11.000Z,3284
2023-09-22T12:36:42.000Z,5292
2023-09-22T12:41:13.000Z,1824
2023-09-22T12:44:14.000Z,2348
2023-09-22T12:45:45.000Z,2580
2023-09-22T12:47:15.000Z,2536
2023-09-22T12:48:46.000Z,2388
2023-09-22T12:50:03.000Z,2600
2023-09-22T12:51:20.000Z,3224
2023-09-22T12:52:50.000Z,4044
2023-09-22T12:54:21.000Z,3416
2023-09-22T12:55:51.000Z,3620
2023-09-22T12:57:22.000Z,2956
2023-09-22T13:00:23.000Z,2636
2023-09-22T13:04:54.000Z,3800
2023-09-22T13:06:11.000Z,3020
2023-09-22T13:07:28.000Z,3564
2023-09-22T13:08:58.000Z,3152
2023-09-22T13:10:29.000Z,3160
2023-09-22T13:11:59.000Z,4008
2023-09-22T13:13:30.000Z,4492
2023-09-22T13:15:00.000Z,5600
2023-09-22T13:18:01.000Z,3224
2023-09-22T13:21:02.000Z,2984
2023-09-22T13:22:19.000Z,2848
2023-09-22T13:25:07.000Z,3996
2023-09-22T13:26:37.000Z,3976
2023-09-22T13:28:08.000Z,2796
2023-09-22T13:29:38.000Z,2088
2023-09-22T13:31:09.000Z,3712
2023-09-22T13:32:40.000Z,1680
2023-09-22T13:34:10.000Z,2468
2023-09-22T13:37:11.000Z,3992
2023-09-22T13:38:28.000Z,2976
2023-09-22T13:39:45.000Z,2528
2023-09-22T13:47:17.000Z,2744
2023-09-22T13:50:18.000Z,3708
2023-09-22T13:51:49.000Z,3092
2023-09-22T13:53:19.000Z,2916
2023-09-22T13:54:50.000Z,1832
2023-09-22T13:56:07.000Z,2324
2023-09-22T13:57:24.000Z,3448
2023-09-22T14:00:25.000Z,3828
2023-09-22T14:01:55.000Z,3772
2023-09-22T14:03:26.000Z,2352
2023-09-22T14:04:56.000Z,3084
2023-09-22T14:07:57.000Z,3616
2023-09-22T14:10:58.000Z,3132
2023-09-22T14:12:15.000Z,2288
2023-09-22T14:15:03.000Z,1968
2023-09-22T14:18:04.000Z,1952
2023-09-22T14:19:34.000Z,1828
2023-09-22T14:21:05.000Z,1884
2023-09-22T14:22:35.000Z,1884
2023-09-22T14:24:06.000Z,1768
2023-09-22T14:27:07.000Z,1948
2023-09-22T14:28:24.000Z,1756
2023-09-22T14:31:11.000Z,1892
2023-09-22T14:32:42.000Z,1852
2023-09-22T14:34:12.000Z,2028
2023-09-22T14:37:13.000Z,1968
2023-09-22T14:38:44.000Z,1736
2023-09-22T14:40:14.000Z,1672
2023-09-22T14:41:45.000Z,1588
2023-09-22T14:43:15.000Z,1540
2023-09-22T14:44:32.000Z,1596
2023-09-22T14:47:20.000Z,1476
2023-09-22T14:48:50.000Z,1480
2023-09-22T14:51:51.000Z,1448
2023-09-22T14:53:22.000Z,1488
2023-09-22T14:54:52.000Z,1564
2023-09-22T14:57:53.000Z,1696
2023-09-22T15:03:28.000Z,1512
2023-09-22T15:04:59.000Z,1236
2023-09-22T15:08:00.000Z,1156
2023-09-22T15:09:30.000Z,1164
2023-09-22T15:11:01.000Z,1132
2023-09-22T15:12:31.000Z,1160
2023-09-22T15:14:02.000Z,1068
2023-09-22T15:15:32.000Z,1028
2023-09-22T15:16:49.000Z,1032
2023-09-22T15:19:37.000Z,992
2023-09-22T15:21:07.000Z,992
2023-09-22T15:22:38.000Z,984
2023-09-22T15:24:08.000Z,964
2023-09-22T15:25:39.000Z,912
2023-09-22T15:27:10.000Z,912
2023-09-22T15:30:11.000Z,904
2023-09-22T15:32:58.000Z,876
2023-09-22T15:34:15.000Z,848
2023-09-22T15:35:45.000Z,760
2023-09-22T15:37:16.000Z,804
2023-09-22T15:38:47.000Z,820
2023-09-22T15:41:48.000Z,804
2023-09-22T15:43:18.000Z,792
2023-09-22T15:44:49.000Z,792
2023-09-22T15:46:19.000Z,780
2023-09-22T15:47:50.000Z,760
2023-09-22T15:49:07.000Z,748
2023-09-22T15:50:24.000Z,732
2023-09-22T15:51:54.000Z,720
2023-09-22T15:53:25.000Z,720
2023-09-22T15:54:55.000Z,708
2023-09-22T15:56:26.000Z,700
2023-09-22T15:57:56.000Z,692
2023-09-22T15:59:27.000Z,688
2023-09-22T16:02:28.000Z,656
2023-09-22T16:05:15.000Z,532
2023-09-22T16:06:32.000Z,472
2023-09-22T16:08:03.000Z,456
2023-09-22T16:09:33.000Z,436
2023-09-22T16:11:04.000Z,420
2023-09-22T16:12:34.000Z,408
2023-09-22T16:14:05.000Z,392
2023-09-22T16:18:36.000Z,344
2023-09-22T16:21:24.000Z,324
2023-09-22T16:22:40.000Z,316
2023-09-22T16:24:11.000Z,308
2023-09-22T16:25:41.000Z,300
2023-09-22T16:27:12.000Z,292
2023-09-22T16:28:42.000Z,280
2023-09-22T16:31:43.000Z,272
2023-09-22T16:33:14.000Z,264
2023-09-22T16:36:15.000Z,260
2023-09-22T16:37:32.000Z,268
2023-09-22T16:38:49.000Z,272
2023-09-22T16:40:19.000Z,276
2023-09-22T16:41:50.000Z,276
2023-09-22T16:43:20.000Z,272
2023-09-22T16:44:51.000Z,264
2023-09-22T16:46:21.000Z,256
2023-09-22T16:47:52.000Z,244
2023-09-22T16:49:22.000Z,236
2023-09-22T16:50:53.000Z,228
2023-09-22T16:52:23.000Z,216
2023-09-22T16:53:40.000Z,208
2023-09-22T16:56:27.000Z,188
2023-09-22T16:57:58.000Z,172
2023-09-22T17:00:59.000Z,152
2023-09-22T17:02:29.000Z,144
2023-09-22T17:04:00.000Z,132
2023-09-22T17:05:30.000Z,112
2023-09-22T17:07:01.000Z,92
2023-09-22T17:08:31.000Z,76
2023-09-22T17:09:48.000Z,72
2023-09-22T17:11:05.000Z,64
2023-09-22T17:12:36.000Z,64
2023-09-22T17:14:06.000Z,64
2023-09-22T17:15:37.000Z,60
2023-09-22T17:17:07.000Z,56
2023-09-22T17:18:38.000Z,56
2023-09-22T17:20:08.000Z,52
2023-09-22T17:21:39.000Z,52
2023-09-22T17:23:09.000Z,48
2023-09-22T17:24:40.000Z,44
2023-09-22T17:25:57.000Z,40
2023-09-22T17:28:44.000Z,28
2023-09-22T17:30:15.000Z,24
2023-09-22T17:31:45.000Z,16
2023-09-22T17:33:16.000Z,16
2023-09-22T17:34:47.000Z,12
2023-09-22T17:36:17.000Z,8
2023-09-22T17:37:48.000Z,8
2023-09-22T17:39:18.000Z,8
2023-09-22T17:40:49.000Z,8
2023-09-22T17:42:06.000Z,4
2023-09-22T17:43:22.000Z,4
2023-09-22T17:44:53.000Z,4
2023-09-22T17:46:23.000Z,0
2023-09-22T17:50:55.000Z,0
2023-09-22T17:52:25.000Z,0
2023-09-22T17:53:56.000Z,0
2023-09-22T17:55:26.000Z,0
2023-09-22T17:58:14.000Z,0
2023-09-22T17:59:31.000Z,0
2023-09-22T18:01:01.000Z,0
2023-09-22T18:04:02.000Z,0
2023-09-22T18:05:33.000Z,0
2023-09-22T18:07:03.000Z,0
2023-09-22T18:10:04.000Z,0
2023-09-22T18:13:05.000Z,0
2023-09-22T18:14:22.000Z,0
2023-09-22T18:15:39.000Z,0
2023-09-22T18:17:10.000Z,0
2023-09-22T18:18:40.000Z,0
2023-09-22T18:20:11.000Z,0
2023-09-22T18:21:41.000Z,0
2023-09-22T18:23:12.000Z,0
2023-09-22T18:24:42.000Z,0
2023-09-22T18:26:13.000Z,0
2023-09-22T18:27:43.000Z,0
2023-09-22T18:29:14.000Z,0
2023-09-22T18:30:30.000Z,0
2023-09-22T18:31:47.000Z,0
2023-09-22T18:33:18.000Z,0
2023-09-22T18:34:48.000Z,0
2023-09-22T18:36:19.000Z,0
2023-09-22T18:37:49.000Z,0
2023-09-22T18:39:20.000Z,0
2023-09-22T18:40:50.000Z,0
2023-09-22T18:42:29.000Z,0
2023-09-22T18:44:00.000Z,0
2023-09-22T18:45:30.000Z,0
2023-09-22T18:46:47.000Z,0
2023-09-22T18:48:04.000Z,0
2023-09-22T18:49:35.000Z,0
2023-09-22T18:51:05.000Z,0
2023-09-22T18:52:36.000Z,0
2023-09-22T18:54:06.000Z,0
2023-09-22T18:55:37.000Z,0
2023-09-22T18:57:07.000Z,0
2023-09-22T18:58:38.000Z,0
2023-09-22T19:00:08.000Z,0
2023-09-22T19:01:39.000Z,0
2023-09-22T19:02:56.000Z,0
2023-09-22T19:04:13.000Z,0
2023-09-22T19:05:43.000Z,0
2023-09-22T19:07:14.000Z,0
2023-09-22T19:08:44.000Z,0
2023-09-22T19:10:15.000Z,0
2023-09-22T19:11:45.000Z,0
2023-09-22T19:13:16.000Z,0
2023-09-22T19:14:46.000Z,0
2023-09-22T19:16:17.000Z,0
2023-09-22T19:17:47.000Z,0
2023-09-22T19:19:04.000Z,0
2023-09-22T19:20:21.000Z,0
2023-09-22T19:21:52.000Z,0
2023-09-22T19:23:22.000Z,0
2023-09-22T19:24:53.000Z,0
2023-09-22T19:27:54.000Z,0
2023-09-22T19:30:55.000Z,0
2023-09-22T19:32:25.000Z,0
2023-09-22T19:33:56.000Z,0
2023-09-22T19:35:13.000Z,0
2023-09-22T19:36:29.000Z,0
2023-09-22T19:38:00.000Z,0
2023-09-22T19:39:30.000Z,0
2023-09-22T19:41:01.000Z,0
2023-09-22T19:44:02.000Z,0
2023-09-22T19:45:32.000Z,0
2023-09-22T19:47:03.000Z,0
2023-09-22T19:48:33.000Z,0
2023-09-22T19:50:04.000Z,0
2023-09-22T19:51:21.000Z,0
2023-09-22T19:52:38.000Z,0
2023-09-22T19:54:08.000Z,0
2023-09-22T19:55:39.000Z,0
2023-09-22T19:57:09.000Z,0
2023-09-22T19:58:40.000Z,0
2023-09-22T20:00:10.000Z,0
2023-09-22T20:01:41.000Z,0
2023-09-22T20:03:11.000Z,0
2023-09-22T20:04:42.000Z,0
2023-09-22T20:06:12.000Z,0
2023-09-22T20:07:29.000Z,0
2023-09-22T20:08:46.000Z,0
2023-09-22T20:10:17.000Z,0
2023-09-22T20:11:47.000Z,0
2023-09-22T20:13:18.000Z,0
2023-09-22T20:14:48.000Z,0
2023-09-22T20:16:19.000Z,0
2023-09-22T20:17:49.000Z,0
2023-09-22T20:19:20.000Z,0
2023-09-22T20:20:50.000Z,0
2023-09-22T20:22:21.000Z,0
2023-09-22T20:23:38.000Z,0
2023-09-22T20:24:55.000Z,0
2023-09-22T20:26:25.000Z,0
2023-09-22T20:27:56.000Z,0
2023-09-22T20:29:26.000Z,0
2023-09-22T20:30:57.000Z,0
2023-09-22T20:32:27.000Z,0
2023-09-22T20:33:58.000Z,0
2023-09-22T20:35:28.000Z,0
2023-09-22T20:36:59.000Z,0
2023-09-22T20:38:29.000Z,0
2023-09-22T20:39:46.000Z,0
2023-09-22T20:41:03.000Z,0
2023-09-22T20:42:34.000Z,0
2023-09-22T20:44:04.000Z,0
2023-09-22T20:45:35.000Z,0
2023-09-22T20:47:05.000Z,0
2023-09-22T20:48:36.000Z,0
2023-09-22T20:50:06.000Z,0
2023-09-22T20:51:37.000Z,0
2023-09-22T20:53:07.000Z,0
2023-09-22T20:54:38.000Z,0
2023-09-22T20:55:55.000Z,0
2023-09-22T20:57:12.000Z,0
2023-09-22T20:58:42.000Z,0
2023-09-22T21:00:13.000Z,0
2023-09-22T21:01:43.000Z,0
2023-09-22T21:03:14.000Z,0
2023-09-22T21:04:44.000Z,0
2023-09-22T21:06:15.000Z,0
2023-09-22T21:07:45.000Z,0
2023-09-22T21:09:16.000Z,0
2023-09-22T21:10:46.000Z,0
2023-09-22T21:12:03.000Z,0
2023-09-22T21:13:20.000Z,0
2023-09-22T21:14:51.000Z,0
2023-09-22T21:16:21.000Z,0
2023-09-22T21:17:52.000Z,0
2023-09-22T21:19:22.000Z,0
2023-09-22T21:20:53.000Z,0
2023-09-22T21:22:23.000Z,0
2023-09-22T21:23:54.000Z,0
2023-09-22T21:25:24.000Z,0
2023-09-22T21:26:55.000Z,0
2023-09-22T21:28:11.000Z,0
2023-09-22T21:29:28.000Z,0
2023-09-22T21:30:59.000Z,0
2023-09-22T21:32:29.000Z,0
2023-09-22T21:34:00.000Z,0
2023-09-22T21:35:30.000Z,0
2023-09-22T21:37:01.000Z,0
2023-09-22T21:38:31.000Z,0
2023-09-22T21:40:02.000Z,0
2023-09-22T21:41:32.000Z,0
2023-09-22T21:43:03.000Z,0
2023-09-22T21:44:20.000Z,0
2023-09-22T21:45:37.000Z,0
2023-09-22T21:47:07.000Z,0
2023-09-22T21:48:38.000Z,0
2023-09-22T21:50:08.000Z,0
2023-09-22T21:51:39.000Z,0
2023-09-22T21:53:09.000Z,0
2023-09-22T21:54:40.000Z,0
2023-09-22T21:56:10.000Z,0
2023-09-22T21:57:41.000Z,0
2023-09-22T21:59:11.000Z,0
2023-09-22T22:00:28.000Z,0
2023-09-22T22:01:45.000Z,0
2023-09-22T22:03:16.000Z,0
2023-09-22T22:04:46.000Z,0
2023-09-22T22:06:17.000Z,0
2023-09-22T22:09:18.000Z,0
2023-09-22T22:10:48.000Z,0
2023-09-22T22:12:19.000Z,0
2023-09-22T22:13:49.000Z,0
2023-09-22T22:15:20.000Z,0
2023-09-22T22:16:37.000Z,0
2023-09-22T22:17:54.000Z,0
2023-09-22T22:19:24.000Z,0
2023-09-22T22:20:55.000Z,0
2023-09-22T22:22:25.000Z,0
2023-09-22T22:23:56.000Z,0
2023-09-22T22:25:26.000Z,0
2023-09-22T22:26:57.000Z,0
2023-09-22T22:28:28.000Z,0
2023-09-22T22:29:58.000Z,0
2023-09-22T22:31:29.000Z,0
2023-09-22T22:32:45.000Z,0
2023-09-22T22:34:02.000Z,0
2023-09-22T22:35:33.000Z,0
2023-09-22T22:37:03.000Z,0
2023-09-22T22:38:34.000Z,0
2023-09-22T22:40:04.000Z,0
2023-09-22T22:41:35.000Z,0
2023-09-22T22:43:05.000Z,0
2023-09-22T22:44:36.000Z,0
2023-09-22T22:46:06.000Z,0
2023-09-22T22:47:37.000Z,0
2023-09-22T22:48:54.000Z,0
2023-09-22T22:50:11.000Z,0
2023-09-22T22:51:41.000Z,0
2023-09-22T22:53:12.000Z,0
2023-09-22T22:54:42.000Z,0
2023-09-22T22:56:13.000Z,0
2023-09-22T22:57:43.000Z,0
2023-09-22T22:59:14.000Z,0
2023-09-22T23:00:44.000Z,0
2023-09-22T23:02:15.000Z,0
2023-09-22T23:03:45.000Z,0
2023-09-22T23:05:02.000Z,0
2023-09-22T23:06:19.000Z,0
2023-09-22T23:07:50.000Z,0
2023-09-22T23:09:20.000Z,0
2023-09-22T23:10:51.000Z,0